Map

Track Data

SID SEASON NUMBER BASIN SUBBASIN NAME ISO_TIME NATURE LAT LON WMO_WIND WMO_PRES WMO_AGENCY TRACK_TYPE DIST2LAND LANDFALL IFLAG USA_AGENCY USA_ATCF_ID USA_LAT USA_LON USA_RECORD USA_STATUS USA_WIND USA_PRES USA_SSHS USA_R34_NE USA_R34_SE USA_R34_SW USA_R34_NW USA_R50_NE USA_R50_SE USA_R50_SW USA_R50_NW USA_R64_NE USA_R64_SE USA_R64_SW USA_R64_NW USA_POCI USA_ROCI USA_RMW USA_EYE TOKYO_LAT TOKYO_LON TOKYO_GRADE TOKYO_WIND TOKYO_PRES TOKYO_R50_DIR TOKYO_R50_LONG TOKYO_R50_SHORT TOKYO_R30_DIR TOKYO_R30_LONG TOKYO_R30_SHORT TOKYO_LAND CMA_LAT CMA_LON CMA_CAT CMA_WIND CMA_PRES HKO_LAT HKO_LON HKO_CAT HKO_WIND HKO_PRES NEWDELHI_LAT NEWDELHI_LON NEWDELHI_GRADE NEWDELHI_WIND NEWDELHI_PRES NEWDELHI_CI NEWDELHI_DP NEWDELHI_POCI REUNION_LAT REUNION_LON REUNION_TYPE REUNION_WIND REUNION_PRES REUNION_TNUM REUNION_CI REUNION_RMW REUNION_R34_NE REUNION_R34_SE REUNION_R34_SW REUNION_R34_NW REUNION_R50_NE REUNION_R50_SE REUNION_R50_SW REUNION_R50_NW REUNION_R64_NE REUNION_R64_SE REUNION_R64_SW REUNION_R64_NW BOM_LAT BOM_LON BOM_TYPE BOM_WIND BOM_PRES BOM_TNUM BOM_CI BOM_RMW BOM_R34_NE BOM_R34_SE BOM_R34_SW BOM_R34_NW BOM_R50_NE BOM_R50_SE BOM_R50_SW BOM_R50_NW BOM_R64_NE BOM_R64_SE BOM_R64_SW BOM_R64_NW BOM_ROCI BOM_POCI BOM_EYE BOM_POS_METHOD BOM_PRES_METHOD NADI_LAT NADI_LON NADI_CAT NADI_WIND NADI_PRES WELLINGTON_LAT WELLINGTON_LON WELLINGTON_WIND WELLINGTON_PRES DS824_LAT DS824_LON DS824_STAGE DS824_WIND DS824_PRES TD9636_LAT TD9636_LON TD9636_STAGE TD9636_WIND TD9636_PRES TD9635_LAT TD9635_LON TD9635_WIND TD9635_PRES TD9635_ROCI NEUMANN_LAT NEUMANN_LON NEUMANN_CLASS NEUMANN_WIND NEUMANN_PRES MLC_LAT MLC_LON MLC_CLASS MLC_WIND MLC_PRES USA_GUST BOM_GUST BOM_GUST_PER REUNION_GUST REUNION_GUST_PER USA_SEAHGT USA_SEARAD_NE USA_SEARAD_SE USA_SEARAD_SW USA_SEARAD_NW STORM_SPEED STORM_DIR
1953211N19130 1953 33 WP MM MAMIE 1953-07-30 00:00:00 TS 19.4000 130.300 main 848 848 O________OOO__ jtwc_wp WP071953 19.4000 130.300 20 -1 19.4000 130.300 TC 20 19.4000 130.300 1 20 19.4000 130.300 20 1004 180 14 37
1953211N19130 1953 33 WP MM MAMIE 1953-07-30 03:00:00 TS 19.9657 130.752 main 910 910 P________PPP__ WP071953 20.0003 130.759 20 -1 20.0003 130.759 TC 20 19.8619 130.729 1 21 20.0003 130.759 20 1003 150 13 38
1953211N19130 1953 33 WP MM MAMIE 1953-07-30 06:00:00 TS 20.4522 131.189 main 962 962 O________OPO__ jtwc_wp WP071953 20.5000 131.200 20 -1 20.5000 131.200 TC 20 20.3086 131.157 1 22 20.5000 131.200 20 1003 120 12 43
1953211N19130 1953 33 WP MM MAMIE 1953-07-30 09:00:00 TS 20.8095 131.602 main 1010 1010 P________PPP__ WP071953 20.8373 131.608 22 -1 20.8373 131.608 TC 22 20.7260 131.582 1 23 20.8373 131.608 22 1003 120 10 49
1953211N19130 1953 33 WP MM MAMIE 1953-07-30 12:00:00 TS 21.1000 132.000 main 1058 1058 O________OOO__ jtwc_wp WP071953 21.1000 132.000 25 -1 21.1000 132.000 TC 25 21.1000 132.000 1 25 21.1000 132.000 25 1003 120 10 51
1953211N19130 1953 33 WP MM MAMIE 1953-07-30 15:00:00 TS 21.4109 132.397 main 1085 1057 P________PPP__ WP071953 21.4073 132.393 25 -1 21.4073 132.393 TC 25 21.4215 132.410 1 26 21.4073 132.393 25 1002 120 10 51
1953211N19130 1953 33 WP MM MAMIE 1953-07-30 18:00:00 TS 21.7004 132.805 main 1059 1043 O________OPO__ jtwc_wp WP071953 21.7000 132.800 25 -1 21.7000 132.800 TC 25 21.7015 132.822 1 27 21.7000 132.800 25 1002 120 10 55
1953211N19130 1953 33 WP MM MAMIE 1953-07-30 21:00:00 TS 21.9514 133.238 main 1035 1024 P________PPP__ WP071953 21.9499 133.235 27 -1 21.9499 133.235 TC 27 21.9558 133.247 1 28 21.9499 133.235 27 1002 120 10 59
1953211N19130 1953 33 WP MM MAMIE 1953-07-31 00:00:00 TS 22.2000 133.700 main 1026 1007 O________OOO__ jtwc_wp WP071953 22.2000 133.700 30 -1 22.2000 133.700 TC 30 22.2000 133.700 1 30 22.2000 133.700 30 1002 120 10 58
1953211N19130 1953 33 WP MM MAMIE 1953-07-31 03:00:00 TS 22.4947 134.184 main 1010 997 P________PPP__ WP071953 22.5073 134.185 32 -1 22.5073 134.185 TC 32 22.4567 134.181 1 32 22.5073 134.185 32 1001 120 11 58
1953211N19130 1953 33 WP MM MAMIE 1953-07-31 06:00:00 TS 22.7767 134.698 main 997 993 O________OPO__ jtwc_wp WP071953 22.8000 134.700 35 0 22.8000 134.700 TC 35 22.7067 134.691 1 35 22.8000 134.700 35 1000 120 11 62
1953211N19130 1953 33 WP MM MAMIE 1953-07-31 09:00:00 TS 23.0049 135.223 main 997 992 P________PPP__ WP071953 23.0221 135.220 37 0 23.0221 135.220 TC 37 22.9534 135.231 1 37 23.0221 135.220 37 999 120 11 67
1953211N19130 1953 33 WP MM MAMIE 1953-07-31 12:00:00 TS 23.2000 135.800 main 1006 1006 O________OOO__ jtwc_wp WP071953 23.2000 135.800 40 0 23.2000 135.800 TC 40 23.2000 135.800 2 40 23.2000 135.800 40 998 120 12 73
1953211N19130 1953 33 WP MM MAMIE 1953-07-31 15:00:00 TS 23.3645 136.478 main 1023 1023 P________PPP__ WP071953 23.3277 136.501 45 0 23.3277 136.501 TC 45 23.4746 136.412 2 45 23.3277 136.501 45 997 120 13 74
1953211N19130 1953 33 WP MM MAMIE 1953-07-31 18:00:00 TS 23.5545 137.122 1002 tokyo main 1035 1035 OOO______OPO__ jtwc_wp WP071953 23.5000 137.200 50 0 23.5000 136.800 2 1002 0 0 0 23.5000 136.800 0 1002 23.5000 137.200 TC 50 23.7453 137.049 2 50 23.5000 137.200 50 996 120 12 68
1953211N19130 1953 33 WP MM MAMIE 1953-07-31 21:00:00 TS 23.8176 137.716 main 1050 1047 PPP______PPP__ WP071953 23.8572 137.787 55 0 23.5532 137.507 2 1002 0 0 23.4932 137.560 0 1002 23.8572 137.787 TC 55 23.9933 137.687 2 55 23.8572 137.787 55 994 120 12 66
1953211N19130 1953 33 WP MM MAMIE 1953-08-01 00:00:00 TS 24.0227 138.286 1002 tokyo main 1068 1066 OOO______OOO__ jtwc_wp WP071953 24.2000 138.300 60 0 23.6000 138.200 2 1002 0 0 0 23.5000 138.300 0 1002 24.2000 138.300 TC 60 24.2000 138.300 2 60 24.2000 138.300 60 993 120 11 75
1953211N19130 1953 33 WP MM MAMIE 1953-08-01 03:00:00 TS 24.0906 138.828 main 1078 1078 PPP______PPP__ WP071953 24.3370 138.743 65 1 23.6547 138.866 2 1001 0 0 23.5474 138.995 0 1001 24.3370 138.743 TC 65 24.3303 138.876 2 65 24.3370 138.743 65 992 120 10 80
1953211N19130 1953 33 WP MM MAMIE 1953-08-01 06:00:00 TS 24.1870 139.353 1000 tokyo main 1084 1080 OOO______OPO__ jtwc_wp WP071953 24.4000 139.200 70 1 23.8000 139.500 2 1000 0 0 0 23.7000 139.600 1 29 1000 24.4000 139.200 TC 70 24.4218 139.419 2 70 24.4000 139.200 70 991 120 10 76
1953211N19130 1953 33 WP MM MAMIE 1953-08-01 09:00:00 TS 24.3409 139.933 main 1090 1081 PPP______PPP__ WP071953 24.4703 139.808 75 1 24.1126 140.152 2 997 0 0 24.0197 140.095 1 38 997 24.4703 139.808 TC 75 24.5024 139.928 2 75 24.4703 139.808 75 990 180 10 69
1953211N19130 1953 33 WP MM MAMIE 1953-08-01 12:00:00 TS 24.5560 140.420 995 tokyo main 1078 1070 OOO______OOO__ jtwc_wp WP071953 24.6000 140.400 80 1 24.5000 140.700 2 995 0 0 0 24.4000 140.500 3 48 995 24.6000 140.400 TC 80 24.6000 140.400 3 80 24.6000 140.400 80 989 240 9 57
1953211N19130 1953 33 WP MM MAMIE 1953-08-01 15:00:00 TS 24.8529 140.811 main 1065 1058 PPP______PPP__ WP071953 24.9071 140.830 90 2 24.8870 141.038 2 994 0 0 24.7222 140.858 3 48 994 24.9071 140.830 TC 90 24.7612 140.864 3 85 24.9071 140.830 90 988 240 9 51
1953211N19130 1953 33 WP MM MAMIE 1953-08-01 18:00:00 TS 25.1204 141.178 994 tokyo main 1063 1053 OOO______OPO__ jtwc_wp WP071953 25.2000 141.200 100 3 25.2000 141.300 9 994 0 0 0 25.0000 141.200 3 48 994 25.2000 141.200 TC 100 24.9421 141.290 3 90 25.2000 141.200 100 987 240 8 61
1953211N19130 1953 33 WP MM MAMIE 1953-08-01 21:00:00 TS 25.2557 141.602 main 1063 1063 PPP______PPP__ WP071953 25.2725 141.623 100 3 25.3451 141.665 9 991 0 0 25.2376 141.622 3 53 993 25.2725 141.623 TC 100 25.1270 141.670 3 95 25.2725 141.623 100 986 240 8 73
1953211N19130 1953 33 WP MM MAMIE 1953-08-02 00:00:00 TS 25.3429 141.986 989 tokyo main 1082 1071 OOO______OOO__ jtwc_wp WP071953 25.3000 142.000 100 3 25.4000 142.000 9 989 0 0 0 25.4000 142.000 3 58 993 25.3000 142.000 TC 100 25.3000 142.000 4 100 25.3000 142.000 100 985 240 6 72
1953211N19130 1953 33 WP MM MAMIE 1953-08-02 03:00:00 TS 25.4483 142.272 main 1080 1065 PPP______PPP__ WP071953 25.4424 142.280 85 2 25.4349 142.230 9 989 0 0 25.4498 142.230 3 63 991 25.4424 142.280 TC 85 25.4228 142.332 4 92 25.4424 142.280 85 986 240 5 64
1953211N19130 1953 33 WP MM MAMIE 1953-08-02 06:00:00 TS 25.5608 142.488 990 tokyo main 1065 1060 OOO______OPO__ jtwc_wp WP071953 25.6000 142.500 70 1 25.5000 142.400 9 990 0 0 0 25.5000 142.400 4 68 990 25.6000 142.500 TC 70 25.5346 142.608 4 85 25.6000 142.500 70 987 240 4 60
1953211N19130 1953 33 WP MM MAMIE 1953-08-02 09:00:00 TS 25.6717 142.696 main 1060 1052 PPP______PPP__ WP071953 25.6700 142.738 70 1 25.6775 142.580 9 990 0 0 25.6776 142.630 4 68 990 25.6700 142.738 TC 70 25.6541 142.804 4 77 25.6700 142.738 70 987 270 4 49
1953211N19130 1953 33 WP MM MAMIE 1953-08-02 12:00:00 TS 25.8286 142.829 990 tokyo main 1052 1022 OOO______OOO__ jtwc_wp WP071953 25.8000 142.900 70 1 25.9000 142.700 9 990 0 0 0 25.9000 142.800 4 68 990 25.8000 142.900 TC 70 25.8000 142.900 4 70 25.8000 142.900 70 988 300 5 22
1953211N19130 1953 33 WP MM MAMIE 1953-08-02 15:00:00 TS 26.0926 142.886 main 1022 987 PPP______PPP__ WP071953 26.1499 142.967 67 1 26.0999 142.752 9 990 0 0 26.0999 142.867 4 68 990 26.1499 142.967 TC 67 26.0202 142.909 4 67 26.1499 142.967 67 988 300 5 0
1953211N19130 1953 33 WP MM MAMIE 1953-08-02 18:00:00 TS 26.3641 142.827 990 tokyo main 987 963 OOO______OPO__ jtwc_wp WP071953 26.5000 142.900 65 1 26.3000 142.700 9 990 0 0 0 26.3000 142.800 4 68 990 26.5000 142.900 TC 65 26.2644 142.816 4 65 26.5000 142.900 65 989 300 5 336
1953211N19130 1953 33 WP MM MAMIE 1953-08-02 21:00:00 TS 26.5659 142.652 main 963 945 PPP______PPP__ WP071953 26.6675 142.703 62 0 26.5300 142.538 9 990 0 0 26.5300 142.595 4 68 990 26.6675 142.703 TC 62 26.5015 142.640 4 62 26.6675 142.703 62 989 330 5 309
1953211N19130 1953 33 WP MM MAMIE 1953-08-03 00:00:00 TS 26.6857 142.386 990 tokyo main 945 935 OOO______OOO__ jtwc_wp WP071953 26.7000 142.400 60 0 26.7000 142.300 9 990 0 0 0 26.7000 142.300 4 68 990 26.7000 142.400 TC 60 26.7000 142.400 2 60 26.7000 142.400 60 989 360 5 282
1953211N19130 1953 33 WP MM MAMIE 1953-08-03 03:00:00 TS 26.6736 142.089 main 935 926 PPP______PPP__ WP071953 26.5776 142.057 60 0 26.7223 142.080 9 990 0 0 26.7300 142.000 4 68 990 26.5776 142.057 TC 60 26.7820 142.123 2 60 26.5776 142.057 60 986 300 6 267
1953211N19130 1953 33 WP MM MAMIE 1953-08-03 06:00:00 TS 26.6589 141.757 990 tokyo main 926 904 OOO______OPO__ jtwc_wp WP071953 26.5000 141.700 60 0 26.7000 141.800 9 990 0 0 0 26.7000 141.700 4 68 990 26.5000 141.700 TC 60 26.8280 141.794 2 60 26.5000 141.700 60 983 240 6 279
1953211N19130 1953 33 WP MM MAMIE 1953-08-03 09:00:00 TS 26.7688 141.417 main 904 885 PPP______PPP__ WP071953 26.6899 141.385 60 0 26.7053 141.385 9 990 0 0 26.6924 141.450 4 68 990 26.6899 141.385 TC 60 26.8851 141.442 2 60 26.6899 141.385 60 984 210 7 296
1953211N19130 1953 33 WP MM MAMIE 1953-08-03 12:00:00 TS 26.9571 141.086 990 tokyo main 875 841 OOO______OOO__ jtwc_wp WP071953 27.0000 141.100 60 0 26.8000 141.000 9 990 0 0 0 26.7000 141.200 4 68 990 27.0000 141.100 TC 60 27.0000 141.100 2 60 27.0000 141.100 60 985 180 7 307
1953211N19130 1953 33 WP MM MAMIE 1953-08-03 15:00:00 TS 27.1896 140.795 main 841 806 PPP______PPP__ WP071953 27.2924 140.850 60 0 27.0622 140.842 9 990 0 0 26.7126 140.892 4 68 990 27.2924 140.850 TC 60 27.2634 140.815 2 58 27.2924 140.850 60 987 150 7 315
1953211N19130 1953 33 WP MM MAMIE 1953-08-03 18:00:00 TS 27.4559 140.529 990 tokyo main 797 767 OOO______OPO__ jtwc_wp WP071953 27.6000 140.600 60 0 27.4000 140.700 9 990 0 0 0 26.8000 140.600 4 68 990 27.6000 140.600 TC 60 27.5845 140.544 2 57 27.6000 140.600 60 989 120 7 320
1953211N19130 1953 33 WP MM MAMIE 1953-08-03 21:00:00 TS 27.7527 140.254 main 758 723 PPP______PPP__ WP071953 27.9374 140.315 57 0 27.7151 140.373 9 990 0 0 26.9898 140.407 4 68 989 27.9374 140.315 TC 57 27.9134 140.275 2 56 27.9374 140.315 57 988 150 7 319
1953211N19130 1953 33 WP MM MAMIE 1953-08-04 00:00:00 TS 28.0240 139.980 990 tokyo main 723 689 OOO______OOO__ jtwc_wp WP071953 28.2000 140.000 55 0 28.0000 140.000 9 990 0 0 0 27.3000 140.200 4 68 989 28.2000 140.000 TC 55 28.2000 140.000 2 55 28.2000 140.000 55 988 180 7 311
1953211N19130 1953 33 WP MM MAMIE 1953-08-04 03:00:00 TS 28.1860 139.691 main 689 664 PPP______PPP__ WP071953 28.2651 139.642 52 0 28.2150 139.677 9 987 0 0 27.7427 139.858 4 68 986 28.2651 139.642 TC 52 28.3633 139.682 2 53 28.2651 139.642 52 986 180 6 299
1953211N19130 1953 33 WP MM MAMIE 1953-08-04 06:00:00 TS 28.3300 139.360 985 tokyo main 664 630 OOO______OPO__ jtwc_wp WP071953 28.3000 139.300 50 0 28.4000 139.400 9 985 0 0 0 28.2000 139.500 4 68 983 28.3000 139.300 TC 50 28.4803 139.362 2 52 28.3000 139.300 50 984 180 6 302
1953211N19130 1953 33 WP MM MAMIE 1953-08-04 09:00:00 TS 28.5216 139.079 main 630 601 PPP______PPP__ WP071953 28.4700 139.005 50 0 28.5999 139.177 9 982 0 0 28.5374 139.220 4 68 982 28.4700 139.005 TC 50 28.5821 139.060 2 51 28.4700 139.005 50 983 180 6 313
1953211N19130 1953 33 WP MM MAMIE 1953-08-04 12:00:00 TS 28.7333 138.867 980 tokyo main 601 577 OOO______OOO__ jtwc_wp WP071953 28.7000 138.800 50 0 28.8000 139.000 9 980 0 0 0 28.8000 139.000 4 68 982 28.7000 138.800 TC 50 28.7000 138.800 2 50 28.7000 138.800 50 983 180 5 327
1953211N19130 1953 33 WP MM MAMIE 1953-08-04 15:00:00 TS 28.9589 138.760 main 567 543 PPP______PPP__ WP071953 28.9573 138.750 50 0 29.0073 138.872 9 980 0 0 28.9999 138.850 4 68 982 28.9573 138.750 TC 50 28.8741 138.591 2 50 28.9573 138.750 50 983 180 5 338
1953211N19130 1953 33 WP MM MAMIE 1953-08-04 18:00:00 TS 29.1783 138.654 980 tokyo main 543 509 OOO______OPO__ jtwc_wp WP071953 29.2000 138.700 50 0 29.2000 138.700 9 980 0 0 0 29.2000 138.700 4 68 983 29.2000 138.700 TC 50 29.0697 138.425 2 50 29.2000 138.700 50 984 180 5 323
1953211N19130 1953 33 WP MM MAMIE 1953-08-04 21:00:00 TS 29.3635 138.415 main 509 490 PPP______PPP__ WP071953 29.3501 138.472 50 0 29.3428 138.335 9 982 0 0 29.5076 138.443 4 68 983 29.3501 138.472 TC 50 29.2804 138.297 2 50 29.3501 138.472 50 984 180 6 311
1953211N19130 1953 33 WP MM MAMIE 1953-08-05 00:00:00 TS 29.5500 138.167 985 tokyo main 480 452 OOO______OOO__ jtwc_wp WP071953 29.5000 138.200 50 0 29.5000 138.000 9 985 0 0 0 29.8000 138.200 4 68 984 29.5000 138.200 TC 50 29.5000 138.200 2 50 29.5000 138.200 50 984 180 6 318
1953211N19130 1953 33 WP MM MAMIE 1953-08-05 03:00:00 TS 29.7742 137.984 main 452 427 PPP______PPP__ WP071953 29.7425 137.948 50 0 29.7348 137.882 9 985 0 0 29.9649 138.070 4 68 984 29.7425 137.948 TC 50 29.7177 138.109 2 50 29.7425 137.948 50 984 150 5 332
1953211N19130 1953 33 WP MM MAMIE 1953-08-05 06:00:00 TS 30.0071 137.891 985 tokyo main 427 408 OOO______OPO__ jtwc_wp WP071953 30.0000 137.800 50 0 30.0000 137.900 9 985 0 0 0 30.1000 138.000 4 68 984 30.0000 137.800 TC 50 29.9424 138.047 2 50 30.0000 137.800 50 984 120 5 354
1953211N19130 1953 33 WP MM MAMIE 1953-08-05 09:00:00 TS 30.2227 137.919 main 408 393 PPP______PPP__ WP071953 30.2075 137.862 50 0 30.2575 137.985 9 985 0 0 30.2850 137.928 4 68 984 30.2075 137.862 TC 50 30.1709 138.012 2 50 30.2075 137.862 50 984 120 4 13
1953211N19130 1953 33 WP MM MAMIE 1953-08-05 12:00:00 TS 30.4333 138.000 985 tokyo main 393 374 OOO______OOO__ jtwc_wp WP071953 30.4000 138.000 50 0 30.5000 138.100 9 985 0 0 0 30.5000 137.900 4 68 985 30.4000 138.000 TC 50 30.4000 138.000 2 50 30.4000 138.000 50 985 120 4 15
1953211N19130 1953 33 WP MM MAMIE 1953-08-05 15:00:00 TS 30.6473 138.046 main 374 352 PPP______PPP__ WP071953 30.5925 138.065 50 0 30.7075 138.165 9 987 0 0 30.7575 137.927 4 63 985 30.5925 138.065 TC 50 30.6412 137.987 2 50 30.5925 138.065 50 985 150 4 9
1953211N19130 1953 33 WP MM MAMIE 1953-08-05 18:00:00 TS 30.8633 138.083 990 tokyo main 352 335 OOO______OPO__ jtwc_wp WP071953 30.8000 138.100 50 0 30.9000 138.200 9 990 0 0 0 31.0000 138.000 3 58 986 30.8000 138.100 TC 50 30.8799 137.997 2 50 30.8000 138.100 50 986 180 4 7
1953211N19130 1953 33 WP MM MAMIE 1953-08-05 21:00:00 TS 31.0827 138.105 main 335 318 PPP______PPP__ WP071953 31.0425 138.100 50 0 31.1000 138.208 9 990 0 0 31.1650 138.085 3 58 986 31.0425 138.100 TC 50 31.1037 138.034 2 50 31.0425 138.100 50 986 180 4 6
1953211N19130 1953 33 WP MM MAMIE 1953-08-06 00:00:00 TS 31.3000 138.133 990 tokyo main 318 308 OOO______OOO__ jtwc_wp WP071953 31.3000 138.100 50 0 31.3000 138.200 9 990 0 0 0 31.3000 138.200 3 58 986 31.3000 138.100 TC 50 31.3000 138.100 2 50 31.3000 138.100 50 987 180 5 8
1953211N19130 1953 33 WP MM MAMIE 1953-08-06 03:00:00 TS 31.5314 138.177 main 308 293 PPP______PPP__ WP071953 31.5874 138.120 47 0 31.5149 138.170 9 990 0 0 31.4575 138.342 3 58 986 31.5874 138.120 TC 47 31.4537 138.188 2 48 31.5874 138.120 47 987 180 4 15
1953211N19130 1953 33 WP MM MAMIE 1953-08-06 06:00:00 TS 31.7133 138.268 990 tokyo main 301 293 OOO______OPO__ jtwc_wp WP071953 31.8000 138.200 45 0 31.7000 138.200 9 990 0 0 0 31.6000 138.500 3 58 987 31.8000 138.200 TC 45 31.5800 138.305 2 47 31.8000 138.200 45 988 180 3 43
1953211N19130 1953 33 WP MM MAMIE 1953-08-06 09:00:00 TS 31.7778 138.443 main 300 300 PPP______PPP__ WP071953 31.8151 138.393 45 0 31.8226 138.377 9 990 0 0 31.7075 138.658 3 58 987 31.8151 138.393 TC 45 31.6912 138.445 2 46 31.8151 138.393 45 988 210 3 72
1953211N19130 1953 33 WP MM MAMIE 1953-08-06 12:00:00 TS 31.8167 138.633 990 tokyo main 312 301 OOO______OOO__ jtwc_wp WP071953 31.8000 138.600 45 0 31.9000 138.600 9 990 0 0 0 31.8000 138.800 3 58 988 31.8000 138.600 TC 45 31.8000 138.600 2 45 31.8000 138.600 45 989 240 3 61
1953211N19130 1953 33 WP MM MAMIE 1953-08-06 15:00:00 TS 31.9195 138.739 main 301 289 PPP______PPP__ WP071953 31.9349 138.693 42 0 31.9273 138.728 9 990 0 0 31.8849 138.878 3 53 989 31.9349 138.693 TC 42 31.9005 138.749 2 43 31.9349 138.693 42 989 240 3 41
1953211N19130 1953 33 WP MM MAMIE 1953-08-06 18:00:00 TS 32.0508 138.869 990 tokyo main 278 269 OOO______OPO__ jtwc_wp WP071953 32.1000 138.800 40 0 32.0000 138.900 9 990 0 0 0 32.0000 139.000 3 48 990 32.1000 138.800 TC 40 32.0048 138.913 2 42 32.1000 138.800 40 990 240 4 50
1953211N19130 1953 33 WP MM MAMIE 1953-08-06 21:00:00 TS 32.1833 139.114 main 269 259 PPP______PPP__ WP071953 32.1926 139.028 40 0 32.2202 139.235 9 990 0 0 32.1701 139.270 3 48 990 32.1926 139.028 TC 40 32.1317 139.096 2 41 32.1926 139.028 40 990 240 5 56
1953211N19130 1953 33 WP MM MAMIE 1953-08-07 00:00:00 TS 32.3500 139.400 990 tokyo main 251 242 OOO______OOO__ jtwc_wp WP071953 32.3000 139.300 40 0 32.5000 139.600 9 990 0 0 0 32.4000 139.600 3 48 990 32.3000 139.300 TC 40 32.3000 139.300 2 40 32.3000 139.300 40 991 240 6 50
1953211N19130 1953 33 WP MM MAMIE 1953-08-07 03:00:00 TS 32.5587 139.648 main 234 220 PPP______PPP__ WP071953 32.4625 139.550 40 0 32.7497 139.850 9 991 0 0 32.6998 139.885 3 43 991 32.4625 139.550 TC 40 32.5153 139.505 2 40 32.4625 139.550 40 991 240 6 43
1953211N19130 1953 33 WP MM MAMIE 1953-08-07 06:00:00 TS 32.8124 139.906 992 tokyo main 224 201 OOO______OPO__ jtwc_wp WP071953 32.7000 139.800 40 0 33.0000 140.100 9 992 0 0 0 33.0000 140.200 2 38 992 32.7000 139.800 TC 40 32.7744 139.734 2 40 32.7000 139.800 40 992 240 7 40
1953211N19130 1953 33 WP MM MAMIE 1953-08-07 09:00:00 TS 33.1056 140.186 main 202 173 PPP______PPP__ WP071953 33.0347 140.020 40 0 33.2426 140.443 9 992 0 0 33.2152 140.615 2 38 992 33.0347 140.020 TC 40 33.0714 139.996 2 40 33.0347 140.020 40 992 210 8 39
1953211N19130 1953 33 WP MM MAMIE 1953-08-07 12:00:00 TS 33.4167 140.500 992 tokyo main 176 157 OOO______OOO__ jtwc_wp WP071953 33.4000 140.300 40 0 33.5000 140.800 9 992 0 0 0 33.4000 141.000 2 38 992 33.4000 140.300 TC 40 33.4000 140.300 2 40 33.4000 140.300 40 993 180 8 45
1953211N19130 1953 33 WP MM MAMIE 1953-08-07 15:00:00 TS 33.6852 140.869 main 162 152 PPP______PPP__ WP071953 33.6853 140.735 37 0 33.7924 141.108 9 993 0 0 33.5847 141.216 2 38 993 33.6853 140.735 TC 37 33.6780 140.682 2 38 33.6853 140.735 37 994 150 8 48
1953211N19130 1953 33 WP MM MAMIE 1953-08-07 18:00:00 TS 33.9823 141.250 994 tokyo main 156 147 OOO______OPO__ jtwc_wp WP071953 34.0000 141.200 35 0 34.1000 141.400 9 994 0 0 0 33.8000 141.400 2 38 994 34.0000 141.200 TC 35 33.9937 141.101 2 37 34.0000 141.200 35 995 120 9 44
1953211N19130 1953 33 WP MM MAMIE 1953-08-07 21:00:00 TS 34.3077 141.589 main 148 141 PPP______PPP__ WP071953 34.3447 141.552 35 0 34.3698 141.686 9 994 0 0 34.0549 141.671 2 38 994 34.3447 141.552 TC 35 34.3874 141.520 2 36 34.3447 141.552 35 995 120 10 35
1953211N19130 1953 33 WP MM MAMIE 1953-08-08 00:00:00 TS 34.7833 141.933 994 tokyo main 135 125 OOO______OOO__ jtwc_wp WP071953 34.9000 141.900 35 0 34.7000 142.000 9 994 0 0 0 34.4000 142.000 2 38 994 34.9000 141.900 TC 35 34.9000 141.900 2 35 34.9000 141.900 35 996 120 14 27
1953211N19130 1953 33 WP MM MAMIE 1953-08-08 03:00:00 TS 35.5376 142.360 main 137 135 PPP______PPP__ WP071953 35.8780 142.392 35 0 35.1700 142.385 9 994 0 0 34.8625 142.385 2 38 994 35.8780 142.392 TC 35 35.5594 142.214 2 33 35.8780 142.392 35 996 120 16 24
1953211N19130 1953 33 WP MM MAMIE 1953-08-08 06:00:00 TS 36.2759 142.751 995 tokyo main 178 173 OOO______OPO__ jtwc_wp WP071953 36.9000 142.800 35 0 35.7000 142.800 9 995 0 0 0 35.4000 142.800 2 38 995 36.9000 142.800 TC 35 36.3393 142.471 2 32 36.9000 142.800 35 997 120 14 24
1953211N19130 1953 33 WP MM MAMIE 1953-08-08 09:00:00 TS 36.7845 143.046 main 178 178 PPP______PPP__ WP071953 37.6071 142.938 32 -1 36.1925 143.215 9 995 0 0 35.9350 143.215 2 38 995 37.6071 142.938 TC 32 37.1998 142.694 2 31 37.6071 142.938 32 997 90 10 31
1953211N19130 1953 33 WP MM MAMIE 1953-08-08 12:00:00 TS 37.1000 143.367 995 tokyo main 212 212 OOO______OOO__ jtwc_wp WP071953 38.1000 142.900 30 -1 36.7000 143.600 9 995 0 0 0 36.5000 143.600 2 38 995 38.1000 142.900 TC 30 38.1000 142.900 1 30 38.1000 142.900 30 998 60 8 61
1953211N19130 1953 33 WP MM MAMIE 1953-08-08 15:00:00 TS 37.1711 143.930 main 243 240 _PP___________ WP071953 -1 37.2424 143.938 9 996 0 0 37.0998 143.923 2 33 996 TC 1 9 46
1953211N19130 1953 33 WP MM MAMIE 1953-08-08 18:00:00 TS 37.7500 144.200 998 tokyo main 242 238 _OO___________ -1 37.8000 144.200 9 998 0 0 0 37.7000 144.200 1 29 998 1 12 19
1953211N19130 1953 33 WP MM MAMIE 1953-08-08 21:00:00 TS 38.2924 144.412 main 238 224 _PP___________ -1 38.3423 144.359 9 998 0 0 38.2424 144.466 1 29 998 1 11 16
1953211N19130 1953 33 WP MM MAMIE 1953-08-09 00:00:00 TS 38.8500 144.600 998 tokyo main 224 221 _OO___________ -1 38.9000 144.500 9 998 0 0 0 38.8000 144.700 1 29 998 12 14
1953211N19130 1953 33 WP MM MAMIE 1953-08-09 03:00:00 TS 39.4748 144.799 main 230 230 _PP___________ -1 39.4999 144.713 9 998 0 0 39.4498 144.886 1 29 998 13 16
1953211N19130 1953 33 WP MM MAMIE 1953-08-09 06:00:00 TS 40.1000 145.050 998 tokyo main 255 233 _OO___________ -1 40.1000 145.000 9 998 0 0 0 40.1000 145.100 1 29 998 12 23
1953211N19130 1953 33 WP MM MAMIE 1953-08-09 09:00:00 TS 40.6241 145.436 main 233 206 _PP___________ -1 40.6203 145.407 9 998 0 0 40.6278 145.465 1 29 998 12 27
1953211N19130 1953 33 WP MM MAMIE 1953-08-09 12:00:00 TS 41.2000 145.800 998 tokyo main 206 147 _OO___________ -1 41.2000 145.800 9 998 0 0 0 41.2000 145.800 1 29 998 14 18
1953211N19130 1953 33 WP MM MAMIE 1953-08-09 15:00:00 TS 41.9549 146.014 main 137 65 _PP___________ -1 41.9549 146.074 9 1000 0 0 41.9549 145.953 1 1000 16 8
1953211N19130 1953 33 WP MM MAMIE 1953-08-09 18:00:00 TS 42.8000 146.100 1002 tokyo main 65 40 _OO___________ -1 42.8000 146.200 9 1002 0 0 0 42.8000 146.000 0 1002 16 1
1953211N19130 1953 33 WP MM MAMIE 1953-08-09 21:00:00 TS 43.5826 146.074 main 41 0 _PP___________ -1 43.5826 146.132 9 1003 0 0 43.5826 146.016 0 1003 17 358
1953211N19130 1953 33 WP MM MAMIE 1953-08-10 00:00:00 MX 44.5000 146.000 1004 tokyo main 13 13 _OO___________ -1 44.5000 146.000 6 1004 0 0 0 44.5000 146.000 0 1004 21 358
1953211N19130 1953 33 WP MM MAMIE 1953-08-10 03:00:00 MX 45.6725 145.979 main 136 136 _PP___________ -1 45.6725 145.963 6 1005 0 0 45.6725 145.995 0 1005 25 1
1953211N19130 1953 33 WP MM MAMIE 1953-08-10 06:00:00 MX 47.0000 146.000 1006 tokyo main 192 _OO___________ -1 47.0000 146.000 6 1006 0 0 0 47.0000 146.000 0 1006 27 1

Digital Typhoon Data and Search

About IBTrACS Database

This database is a web-friendly format of International Best Track Archive for Climate Stewardship (IBTrACS), a global best track data archive curated by NOAA dating back to 1842.

Updated: 2021-12-06